Time;durP1;ratioP1;P1;durP2;ratioP2;P2;SDS_P1;SDS_P2;PMS_P1;PMS_P2;Temp;Humidity;BMP_temperature;BMP_pressure;BME280_temperature;BME280_humidity;BME280_pressure;Samples;Min_cycle;Max_cycle;Signal;HPM_P1;HPM_P2
2024/01/06 00:01:29;;;;;;;37.30;31.83;;;3.00;99.90;;;;;;4890950;29;20081;-76
2024/01/06 00:03:55;;;;;;;49.58;33.55;;;3.00;99.90;;;;;;4911014;29;20459;-76
2024/01/06 00:06:21;;;;;;;39.80;31.83;;;2.90;99.90;;;;;;4880610;29;20056;-76
2024/01/06 00:08:53;;;;;;;47.45;34.15;;;2.90;99.90;;;;;;4899633;29;20032;-75
2024/01/06 00:11:22;;;;;;;37.53;31.55;;;2.90;99.90;;;;;;4902519;29;20055;-75
2024/01/06 00:13:48;;;;;;;39.00;32.50;;;2.90;99.90;;;;;;4902098;29;20040;-75
2024/01/06 00:16:19;;;;;;;53.85;37.08;;;2.90;99.90;;;;;;4898621;29;20396;-76
2024/01/06 00:18:46;;;;;;;46.33;36.08;;;2.90;99.90;;;;;;4901027;29;20463;-76
2024/01/06 00:21:11;;;;;;;42.70;34.42;;;2.90;99.90;;;;;;4918230;29;20075;-76
2024/01/06 00:23:37;;;;;;;44.97;36.17;;;2.90;99.90;;;;;;4901922;29;20119;-76
2024/01/06 00:26:04;;;;;;;46.58;35.88;;;3.00;99.90;;;;;;4909205;29;20036;-76
2024/01/06 00:28:29;;;;;;;37.70;33.58;;;2.90;99.90;;;;;;4901914;29;20036;-76
2024/01/06 00:30:55;;;;;;;41.95;35.20;;;2.90;99.90;;;;;;4917771;29;20538;-75
2024/01/06 00:33:21;;;;;;;77.95;41.55;;;3.00;99.90;;;;;;4917436;29;20092;-75
2024/01/06 00:35:46;;;;;;;80.65;41.85;;;2.90;99.90;;;;;;4901486;29;20044;-75
2024/01/06 00:38:12;;;;;;;38.95;34.03;;;2.90;99.90;;;;;;4901017;29;20040;-76
2024/01/06 00:40:38;;;;;;;37.92;33.90;;;3.00;99.90;;;;;;4894204;29;20044;-76
2024/01/06 00:43:04;;;;;;;17.38;9.57;;;2.90;99.90;;;;;;4902029;29;20443;-76
2024/01/06 00:45:30;;;;;;;42.92;35.75;;;2.90;99.90;;;;;;4902073;29;20119;-76
2024/01/06 00:47:56;;;;;;;51.28;39.25;;;2.90;99.90;;;;;;4888546;29;20044;-76
2024/01/06 00:50:22;;;;;;;65.07;46.33;;;3.00;99.90;;;;;;4889307;29;20058;-76
2024/01/06 00:52:47;;;;;;;61.58;45.00;;;3.00;99.90;;;;;;4906838;29;20502;-76
2024/01/06 00:55:13;;;;;;;79.22;46.50;;;3.10;99.90;;;;;;4908168;29;20036;-74
2024/01/06 00:57:39;;;;;;;57.78;43.33;;;3.00;99.90;;;;;;4893563;29;20048;-76
2024/01/06 01:00:05;;;;;;;65.40;44.55;;;2.90;99.90;;;;;;4933141;29;20130;-76
2024/01/06 01:02:31;;;;;;;56.05;43.40;;;3.00;99.90;;;;;;4901029;29;20047;-76
2024/01/06 01:04:57;;;;;;;55.10;42.50;;;2.90;99.90;;;;;;4892739;29;20044;-76
2024/01/06 01:07:24;;;;;;;54.90;43.45;;;2.90;99.90;;;;;;4897971;29;20067;-76
2024/01/06 01:09:49;;;;;;;49.78;41.38;;;2.90;99.90;;;;;;4882872;29;20044;-75
2024/01/06 01:12:15;;;;;;;55.47;44.45;;;2.80;99.90;;;;;;4898219;29;20056;-76
2024/01/06 01:14:41;;;;;;;54.58;44.70;;;2.80;99.90;;;;;;4874794;29;20135;-76
2024/01/06 01:17:06;;;;;;;22.80;11.30;;;2.90;99.90;;;;;;4882637;29;20551;-75
2024/01/06 01:19:32;;;;;;;50.58;44.55;;;2.80;99.90;;;;;;4899266;29;20099;-75
2024/01/06 01:21:57;;;;;;;54.63;44.45;;;2.80;99.90;;;;;;4897262;29;20044;-75
2024/01/06 01:24:23;;;;;;;59.55;46.25;;;2.90;99.90;;;;;;4890069;29;20040;-75
2024/01/06 01:26:49;;;;;;;58.50;44.35;;;2.80;99.90;;;;;;4900812;29;20063;-75
2024/01/06 01:29:20;;;;;;;73.15;48.63;;;2.80;99.90;;;;;;4901154;29;20487;-76
2024/01/06 01:31:47;;;;;;;52.63;44.85;;;2.70;99.90;;;;;;4916783;29;20048;-76
2024/01/06 01:34:12;;;;;;;57.55;46.50;;;2.70;99.90;;;;;;4892582;29;20206;-75
2024/01/06 01:36:38;;;;;;;54.47;44.10;;;2.70;99.90;;;;;;4899261;29;20173;-75
2024/01/06 01:39:04;;;;;;;81.10;50.28;;;2.70;99.90;;;;;;4900756;29;20048;-75
2024/01/06 01:41:29;;;;;;;96.78;53.90;;;2.60;99.90;;;;;;4900175;29;20095;-75
2024/01/06 01:43:58;;;;;;;110.07;56.08;;;2.60;99.90;;;;;;4891671;29;20028;-75
2024/01/06 01:46:30;;;;;;;77.78;52.92;;;2.60;99.90;;;;;;4898003;29;20048;-76
2024/01/06 01:48:57;;;;;;;117.47;56.92;;;2.50;99.90;;;;;;4900412;29;20130;-76
2024/01/06 01:51:27;;;;;;;89.50;53.42;;;2.50;99.90;;;;;;4916181;29;20175;-75
2024/01/06 01:53:53;;;;;;;97.82;55.42;;;2.50;99.90;;;;;;4900268;29;20066;-75
2024/01/06 01:56:19;;;;;;;96.68;56.78;;;2.50;99.90;;;;;;4899507;29;20507;-75
2024/01/06 01:58:45;;;;;;;100.05;57.97;;;2.50;99.90;;;;;;4899743;29;20044;-76
2024/01/06 02:01:11;;;;;;;89.72;56.60;;;2.50;99.90;;;;;;4899915;29;20040;-74
2024/01/06 02:03:37;;;;;;;76.93;54.83;;;2.50;99.90;;;;;;4900105;29;20036;-76
2024/01/06 02:06:03;;;;;;;88.45;56.08;;;2.50;99.90;;;;;;4900515;29;20136;-75
2024/01/06 02:08:29;;;;;;;94.20;58.97;;;2.40;99.90;;;;;;4900330;29;20123;-75
2024/01/06 02:10:56;;;;;;;108.45;59.05;;;2.40;99.90;;;;;;4900170;29;20503;-76
2024/01/06 02:13:22;;;;;;;111.03;59.25;;;2.50;99.90;;;;;;4895599;29;20048;-75
2024/01/06 02:15:47;;;;;;;155.02;62.47;;;2.50;99.90;;;;;;4913658;29;20071;-76
2024/01/06 02:18:13;;;;;;;99.38;55.85;;;2.40;99.90;;;;;;4900174;29;20098;-76
2024/01/06 02:20:44;;;;;;;101.97;56.90;;;2.40;99.90;;;;;;4899690;29;20491;-75
2024/01/06 02:23:10;;;;;;;116.10;59.65;;;2.50;99.90;;;;;;4915700;29;20059;-75
2024/01/06 02:25:35;;;;;;;98.85;58.00;;;2.40;99.90;;;;;;4898803;29;20037;-76
2024/01/06 02:28:01;;;;;;;30.83;14.15;;;2.50;99.90;;;;;;4915442;29;20040;-76
2024/01/06 02:30:27;;;;;;;89.38;55.28;;;2.40;99.90;;;;;;4912308;29;20077;-76
2024/01/06 02:32:52;;;;;;;31.70;16.35;;;2.40;99.90;;;;;;4896555;29;20043;-76
2024/01/06 02:35:18;;;;;;;109.18;56.13;;;2.40;99.90;;;;;;4900689;29;20087;-75
2024/01/06 02:37:44;;;;;;;102.85;51.35;;;2.40;99.90;;;;;;4891760;29;20099;-75
2024/01/06 02:40:10;;;;;;;35.97;16.52;;;2.30;99.90;;;;;;4899432;29;20064;-76
2024/01/06 02:42:36;;;;;;;74.18;47.90;;;2.30;99.90;;;;;;4895398;29;20451;-75
2024/01/06 02:45:02;;;;;;;67.97;46.97;;;2.30;99.90;;;;;;4889127;29;20035;-75
2024/01/06 02:47:27;;;;;;;68.18;44.83;;;2.30;99.90;;;;;;4892181;29;20051;-75
2024/01/06 02:49:53;;;;;;;22.38;12.45;;;2.30;99.90;;;;;;4914334;29;20039;-76
2024/01/06 02:52:19;;;;;;;27.73;12.45;;;2.20;99.90;;;;;;4892821;29;20067;-75
2024/01/06 02:54:44;;;;;;;53.85;41.00;;;2.10;99.90;;;;;;4896765;29;20384;-75
2024/01/06 02:57:13;;;;;;;21.02;10.73;;;2.10;99.90;;;;;;4899368;29;20047;-75
2024/01/06 02:59:38;;;;;;;19.50;9.90;;;2.10;99.90;;;;;;4890535;29;20080;-75
2024/01/06 03:02:04;;;;;;;67.10;44.65;;;2.10;99.90;;;;;;4899019;29;20040;-76
2024/01/06 03:04:30;;;;;;;51.50;40.30;;;2.10;99.90;;;;;;4899530;29;20036;-75
2024/01/06 03:06:55;;;;;;;61.00;43.83;;;2.10;99.90;;;;;;4901589;29;20035;-76
2024/01/06 03:09:21;;;;;;;64.68;43.60;;;2.10;99.90;;;;;;4899930;29;20403;-75
2024/01/06 03:11:47;;;;;;;61.13;43.78;;;2.10;99.90;;;;;;4899865;29;20044;-74
2024/01/06 03:14:12;;;;;;;67.90;46.83;;;2.10;99.90;;;;;;4912110;29;20043;-75
2024/01/06 03:16:38;;;;;;;63.92;45.45;;;2.10;99.90;;;;;;4899709;29;20076;-75
2024/01/06 03:19:03;;;;;;;24.63;12.15;;;2.00;99.90;;;;;;4899671;29;20652;-75
2024/01/06 03:21:29;;;;;;;70.78;46.17;;;2.00;99.90;;;;;;4915160;29;20051;-75
2024/01/06 03:23:55;;;;;;;21.55;9.88;;;2.00;99.90;;;;;;4899684;29;20217;-75
2024/01/06 03:26:21;;;;;;;62.88;43.33;;;2.00;99.90;;;;;;4893829;29;20049;-75
2024/01/06 03:28:49;;;;;;;65.60;44.50;;;2.00;99.90;;;;;;4897231;29;20055;-75
2024/01/06 03:31:15;;;;;;;28.13;13.98;;;2.00;99.90;;;;;;4899020;29;20052;-75
2024/01/06 03:33:41;;;;;;;67.72;44.88;;;2.00;99.90;;;;;;4899480;29;20044;-76
2024/01/06 03:36:07;;;;;;;21.38;10.38;;;2.00;99.90;;;;;;4898065;29;20047;-75
2024/01/06 03:38:33;;;;;;;57.13;41.72;;;2.00;99.90;;;;;;4891264;29;20036;-75
2024/01/06 03:40:59;;;;;;;22.67;9.80;;;2.00;99.90;;;;;;4896015;29;20048;-75
2024/01/06 03:43:25;;;;;;;62.88;44.10;;;1.90;99.90;;;;;;4880571;29;20060;-75
2024/01/06 03:45:50;;;;;;;69.28;45.97;;;1.90;99.90;;;;;;4892244;29;20052;-75
2024/01/06 03:48:16;;;;;;;91.20;49.25;;;2.00;99.90;;;;;;4907222;29;20040;-75
2024/01/06 03:50:42;;;;;;;28.90;12.70;;;2.00;99.90;;;;;;4900528;29;20102;-76
2024/01/06 03:53:07;;;;;;;22.08;11.77;;;1.90;99.90;;;;;;4902532;29;20040;-75
2024/01/06 03:55:33;;;;;;;29.90;13.80;;;1.90;99.90;;;;;;4899367;29;20537;-75
2024/01/06 03:57:59;;;;;;;64.32;44.42;;;1.90;99.90;;;;;;4883658;29;20047;-75
2024/01/06 04:00:27;;;;;;;66.30;44.97;;;1.90;99.90;;;;;;4939122;23;20044;-76
2024/01/06 04:02:53;;;;;;;68.50;47.08;;;1.90;99.90;;;;;;4932578;29;20607;-76
2024/01/06 04:05:18;;;;;;;81.50;49.25;;;1.90;99.90;;;;;;4932678;29;20058;-75
2024/01/06 04:07:44;;;;;;;69.00;46.50;;;1.90;99.90;;;;;;4933118;29;20048;-75
2024/01/06 04:10:09;;;;;;;75.00;49.25;;;1.90;99.90;;;;;;4917062;29;20048;-75
2024/01/06 04:12:35;;;;;;;83.10;50.05;;;1.90;99.90;;;;;;4917067;29;20044;-75
2024/01/06 04:15:01;;;;;;;26.48;13.65;;;1.90;99.90;;;;;;4913879;29;20077;-76
2024/01/06 04:17:26;;;;;;;90.72;51.20;;;1.80;99.90;;;;;;4916874;29;20060;-76
2024/01/06 04:19:52;;;;;;;85.60;51.42;;;1.80;99.90;;;;;;4916975;29;20074;-76
2024/01/06 04:22:18;;;;;;;23.08;12.63;;;1.80;99.90;;;;;;4932860;29;20083;-76
2024/01/06 04:24:44;;;;;;;123.00;56.25;;;1.80;99.90;;;;;;4916034;29;20076;-76
2024/01/06 04:27:09;;;;;;;77.78;50.97;;;1.80;99.90;;;;;;4914042;29;20045;-76
2024/01/06 04:29:35;;;;;;;73.38;48.38;;;1.80;99.90;;;;;;4901422;29;20582;-76
2024/01/06 04:32:01;;;;;;;63.95;48.20;;;1.90;99.90;;;;;;4925025;29;20055;-76
2024/01/06 04:34:26;;;;;;;77.15;50.22;;;1.90;99.90;;;;;;4916638;29;20309;-76
2024/01/06 04:36:52;;;;;;;70.93;50.42;;;1.80;99.90;;;;;;4915284;29;20052;-76
2024/01/06 04:39:18;;;;;;;79.43;50.63;;;1.80;99.90;;;;;;4914010;29;20041;-75
2024/01/06 04:41:43;;;;;;;93.60;52.83;;;1.90;99.90;;;;;;4897762;29;20036;-76
2024/01/06 04:44:09;;;;;;;70.25;50.65;;;1.90;99.90;;;;;;4898823;29;20128;-76
2024/01/06 04:46:34;;;;;;;32.72;15.70;;;1.90;99.90;;;;;;4894492;29;20494;-76
2024/01/06 04:49:00;;;;;;;24.92;12.15;;;1.90;99.90;;;;;;4932377;29;20051;-76
2024/01/06 04:51:25;;;;;;;57.92;46.97;;;1.80;99.90;;;;;;4932553;29;20495;-75
2024/01/06 04:53:51;;;;;;;65.93;48.78;;;1.80;99.90;;;;;;4932025;29;20050;-75
2024/01/06 04:56:16;;;;;;;28.77;14.27;;;1.80;99.90;;;;;;4904689;29;20602;-76
2024/01/06 04:58:42;;;;;;;29.08;12.80;;;1.70;99.90;;;;;;4881727;29;20460;-76
2024/01/06 05:01:08;;;;;;;66.85;48.53;;;1.70;99.90;;;;;;4907589;29;20455;-75
2024/01/06 05:03:33;;;;;;;91.63;54.63;;;1.80;99.90;;;;;;4923275;29;20496;-75
2024/01/06 05:05:59;;;;;;;31.90;15.07;;;1.70;99.90;;;;;;4897383;29;20048;-75
2024/01/06 05:08:24;;;;;;;28.65;13.43;;;1.70;99.90;;;;;;4897198;29;20143;-75
2024/01/06 05:10:52;;;;;;;94.45;55.10;;;1.70;99.90;;;;;;4897242;29;20044;-75
2024/01/06 05:13:18;;;;;;;27.60;13.68;;;1.70;99.90;;;;;;4898320;29;20032;-75
2024/01/06 05:15:43;;;;;;;86.13;53.67;;;1.60;99.90;;;;;;4906420;29;20105;-75
2024/01/06 05:18:09;;;;;;;26.70;13.57;;;1.60;99.90;;;;;;4932056;29;20042;-75
2024/01/06 05:20:34;;;;;;;83.72;54.78;;;1.60;99.90;;;;;;4931648;29;20071;-76
2024/01/06 05:23:00;;;;;;;77.40;53.15;;;1.60;99.90;;;;;;4931485;29;20044;-75
2024/01/06 05:25:26;;;;;;;19.20;10.50;;;1.60;99.90;;;;;;4915210;29;20036;-75
2024/01/06 05:27:51;;;;;;;67.88;48.85;;;1.60;99.90;;;;;;4915271;29;20051;-75
2024/01/06 05:30:18;;;;;;;79.32;51.67;;;1.60;99.90;;;;;;4915603;29;20036;-75
2024/01/06 05:32:43;;;;;;;25.98;12.35;;;1.60;99.90;;;;;;4931709;29;20048;-75
2024/01/06 05:35:09;;;;;;;87.50;53.80;;;1.60;99.90;;;;;;4927824;29;20111;-76
2024/01/06 05:37:34;;;;;;;30.55;13.73;;;1.60;99.90;;;;;;4896704;29;20052;-75
2024/01/06 05:40:03;;;;;;;84.60;55.28;;;1.60;99.90;;;;;;4895735;29;20033;-75
2024/01/06 05:42:29;;;;;;;103.72;58.10;;;1.60;99.90;;;;;;4928223;29;20036;-75
2024/01/06 05:44:55;;;;;;;96.32;54.45;;;1.60;99.90;;;;;;4914391;29;20052;-75
2024/01/06 05:47:20;;;;;;;128.27;59.13;;;1.60;99.90;;;;;;4915569;29;20040;-75
2024/01/06 05:49:46;;;;;;;33.75;15.80;;;1.60;99.90;;;;;;4908445;29;20402;-75
2024/01/06 05:52:12;;;;;;;26.15;11.90;;;1.50;99.90;;;;;;4896421;29;20486;-75
2024/01/06 05:54:42;;;;;;;88.35;53.75;;;1.50;99.90;;;;;;4904984;29;20085;-75
2024/01/06 05:57:07;;;;;;;27.50;13.25;;;1.50;99.90;;;;;;4914843;29;20048;-75
2024/01/06 05:59:33;;;;;;;87.60;55.47;;;1.50;99.90;;;;;;4930912;29;20044;-75
2024/01/06 06:01:59;;;;;;;26.08;11.10;;;1.40;99.90;;;;;;4931050;29;20429;-76
2024/01/06 06:04:25;;;;;;;81.90;51.40;;;1.50;99.90;;;;;;4903565;29;20518;-75
2024/01/06 06:06:50;;;;;;;31.05;12.85;;;1.50;99.90;;;;;;4897622;29;20040;-75
2024/01/06 06:09:16;;;;;;;24.27;10.05;;;1.40;99.90;;;;;;4914174;29;20043;-76
2024/01/06 06:11:42;;;;;;;84.22;48.17;;;1.40;99.90;;;;;;4912379;29;20044;-76
2024/01/06 06:14:08;;;;;;;86.70;50.42;;;1.40;99.90;;;;;;4930885;29;20048;-75
2024/01/06 06:16:34;;;;;;;26.27;11.05;;;1.40;99.90;;;;;;4930337;29;20511;-77
2024/01/06 06:18:59;;;;;;;102.50;52.60;;;1.40;99.90;;;;;;4929556;29;20035;-75
2024/01/06 06:21:25;;;;;;;67.30;46.42;;;1.40;99.90;;;;;;4913833;29;20028;-75
2024/01/06 06:23:51;;;;;;;25.25;12.77;;;1.40;99.90;;;;;;4930346;29;20238;-76
2024/01/06 06:26:17;;;;;;;21.85;12.10;;;1.40;99.90;;;;;;4920818;29;20044;-76
2024/01/06 06:28:42;;;;;;;80.57;48.90;;;1.40;99.90;;;;;;4914476;29;20415;-75
2024/01/06 06:31:08;;;;;;;67.95;47.30;;;1.40;99.90;;;;;;4929214;29;20047;-75
2024/01/06 06:33:33;;;;;;;32.58;14.45;;;1.40;99.90;;;;;;4930090;29;20047;-75
2024/01/06 06:35:59;;;;;;;22.95;11.57;;;1.40;99.90;;;;;;4906390;29;20052;-75
2024/01/06 06:38:29;;;;;;;23.30;11.68;;;1.30;99.90;;;;;;4895650;29;20131;-75
2024/01/06 06:40:55;;;;;;;90.18;52.00;;;1.30;99.90;;;;;;4895581;29;20176;-75
2024/01/06 06:43:21;;;;;;;67.40;47.40;;;1.30;99.90;;;;;;4913662;29;20135;-75
2024/01/06 06:45:46;;;;;;;75.18;49.45;;;1.40;99.90;;;;;;4924781;29;20109;-76
2024/01/06 06:48:12;;;;;;;33.65;16.67;;;1.40;99.90;;;;;;4895700;29;20047;-75
2024/01/06 06:50:37;;;;;;;72.97;49.88;;;1.40;99.90;;;;;;4895456;29;20044;-75
2024/01/06 06:53:03;;;;;;;31.75;14.70;;;1.40;99.90;;;;;;4889765;29;20103;-76
2024/01/06 06:55:29;;;;;;;84.47;52.25;;;1.40;99.90;;;;;;4912944;29;20048;-76
2024/01/06 06:57:54;;;;;;;28.10;11.05;;;1.40;99.90;;;;;;4912504;29;20475;-75
2024/01/06 07:00:20;;;;;;;29.80;13.18;;;1.40;99.90;;;;;;4909905;29;20032;-75
2024/01/06 07:02:46;;;;;;;64.05;49.97;;;1.40;99.90;;;;;;4912298;29;20072;-76
2024/01/06 07:05:11;;;;;;;30.25;13.90;;;1.40;99.90;;;;;;4929904;29;20076;-76
2024/01/06 07:07:37;;;;;;;68.47;50.22;;;1.40;99.90;;;;;;4914232;29;20119;-76
2024/01/06 07:10:05;;;;;;;71.97;50.97;;;1.40;99.90;;;;;;4930220;29;20044;-75
2024/01/06 07:12:31;;;;;;;35.45;13.68;;;1.40;99.90;;;;;;4917839;29;20044;-75
2024/01/06 07:14:56;;;;;;;27.83;13.35;;;1.40;99.90;;;;;;4897376;29;20051;-76
2024/01/06 07:17:22;;;;;;;63.10;47.70;;;1.40;99.90;;;;;;4928346;29;20040;-75
2024/01/06 07:19:48;;;;;;;65.40;46.13;;;1.40;99.90;;;;;;4905719;29;20495;-78
2024/01/06 07:22:16;;;;;;;54.13;46.70;;;1.40;99.90;;;;;;4911588;29;20036;-78
2024/01/06 07:24:42;;;;;;;56.53;46.10;;;1.40;99.90;;;;;;4902097;29;20411;-77
2024/01/06 07:27:07;;;;;;;28.40;14.30;;;1.40;99.90;;;;;;4934019;29;20043;-79
2024/01/06 07:29:33;;;;;;;28.60;14.43;;;1.40;99.90;;;;;;4932108;29;20041;-75
2024/01/06 07:31:58;;;;;;;27.63;14.40;;;1.40;99.90;;;;;;4906766;29;20238;-75
2024/01/06 07:34:25;;;;;;;59.40;49.15;;;1.40;99.90;;;;;;4915393;29;20071;-75
2024/01/06 07:36:50;;;;;;;25.77;12.75;;;1.40;99.90;;;;;;4899945;29;20055;-75
2024/01/06 07:39:16;;;;;;;24.25;11.30;;;1.40;99.90;;;;;;4916205;29;20399;-75
2024/01/06 07:41:42;;;;;;;58.25;49.25;;;1.30;99.90;;;;;;4916750;29;20043;-76
2024/01/06 07:44:07;;;;;;;26.55;13.13;;;1.30;99.90;;;;;;4900929;29;20588;-75
2024/01/06 07:46:35;;;;;;;54.38;47.47;;;1.40;99.90;;;;;;4912061;29;20037;-75
2024/01/06 07:49:00;;;;;;;22.38;12.25;;;1.40;99.90;;;;;;4902140;29;20040;-75
2024/01/06 07:51:26;;;;;;;22.70;11.40;;;1.40;99.90;;;;;;4933305;29;20043;-76
2024/01/06 07:53:51;;;;;;;64.00;49.75;;;1.40;99.90;;;;;;4932517;29;20467;-76
2024/01/06 07:56:17;;;;;;;47.05;42.00;;;1.30;99.90;;;;;;4933177;29;20044;-75
2024/01/06 07:58:43;;;;;;;48.97;42.47;;;1.40;99.90;;;;;;4933057;29;20499;-75
2024/01/06 08:01:09;;;;;;;20.63;10.40;;;1.40;99.90;;;;;;4931172;29;20038;-76
2024/01/06 08:03:34;;;;;;;21.70;11.07;;;1.40;99.90;;;;;;4927989;29;20048;-75
2024/01/06 08:06:00;;;;;;;46.35;41.63;;;1.30;99.90;;;;;;4898425;29;20053;-76
2024/01/06 08:08:26;;;;;;;52.40;45.97;;;1.40;99.90;;;;;;4905690;29;20127;-75
2024/01/06 08:10:52;;;;;;;23.50;12.73;;;1.40;99.90;;;;;;4915147;29;20040;-77
2024/01/06 08:13:17;;;;;;;19.75;10.02;;;1.40;99.90;;;;;;4903888;29;20116;-76
2024/01/06 08:15:43;;;;;;;51.35;45.78;;;1.40;99.90;;;;;;4898562;29;20060;-76
2024/01/06 08:18:08;;;;;;;49.13;43.97;;;1.40;99.90;;;;;;4913891;29;20044;-76
2024/01/06 08:20:34;;;;;;;32.80;15.30;;;1.40;99.90;;;;;;4923498;29;20095;-76
2024/01/06 08:22:59;;;;;;;29.75;14.48;;;1.40;99.90;;;;;;4915286;29;20040;-77
2024/01/06 08:25:25;;;;;;;19.67;10.45;;;1.40;99.90;;;;;;4899485;29;20131;-77
2024/01/06 08:27:50;;;;;;;46.28;41.03;;;1.40;99.90;;;;;;4898077;29;20511;-77
2024/01/06 08:30:16;;;;;;;44.55;40.30;;;1.40;99.90;;;;;;4913279;29;20438;-77
2024/01/06 08:32:42;;;;;;;48.35;42.42;;;1.40;99.90;;;;;;4882711;29;20510;-77
2024/01/06 08:35:08;;;;;;;44.92;40.72;;;1.40;99.90;;;;;;4932298;29;20039;-77
2024/01/06 08:37:33;;;;;;;24.02;13.77;;;1.50;99.90;;;;;;4932820;29;20044;-77
2024/01/06 08:39:59;;;;;;;18.92;10.60;;;1.50;99.90;;;;;;4914762;29;20543;-77
2024/01/06 08:42:25;;;;;;;16.02;9.10;;;1.50;99.90;;;;;;4932326;29;20039;-77
2024/01/06 08:44:51;;;;;;;42.40;38.50;;;1.40;99.90;;;;;;4915349;29;20040;-78
2024/01/06 08:47:17;;;;;;;44.72;40.60;;;1.40;99.90;;;;;;4932237;29;20032;-77
2024/01/06 08:49:43;;;;;;;40.60;36.83;;;1.40;99.90;;;;;;4916680;29;20368;-77
2024/01/06 08:52:08;;;;;;;22.63;12.50;;;1.50;99.90;;;;;;4932281;29;20506;-77
2024/01/06 08:54:34;;;;;;;43.25;39.25;;;1.50;99.90;;;;;;4916501;29;20527;-77
2024/01/06 08:57:00;;;;;;;23.40;11.77;;;1.50;99.90;;;;;;4932298;29;20063;-77
2024/01/06 08:59:26;;;;;;;22.98;14.13;;;1.50;99.90;;;;;;4931205;29;20044;-77
2024/01/06 09:01:52;;;;;;;40.25;36.63;;;1.50;99.90;;;;;;4931881;29;20039;-77
2024/01/06 09:04:18;;;;;;;39.63;36.13;;;1.50;99.90;;;;;;4931898;29;20592;-77
2024/01/06 09:06:46;;;;;;;21.48;11.38;;;1.50;99.90;;;;;;4932069;29;20128;-77
2024/01/06 09:09:12;;;;;;;38.28;35.00;;;1.50;99.90;;;;;;4931293;29;20051;-77
2024/01/06 09:11:37;;;;;;;39.00;35.50;;;1.50;99.90;;;;;;4916077;29;20411;-77
2024/01/06 09:14:03;;;;;;;16.50;9.90;;;1.60;99.90;;;;;;4931888;29;20059;-79
2024/01/06 09:16:29;;;;;;;40.00;36.40;;;1.60;99.90;;;;;;4931729;29;20518;-77
2024/01/06 09:18:54;;;;;;;39.13;35.72;;;1.60;99.90;;;;;;4932005;29;20050;-77
2024/01/06 09:21:20;;;;;;;38.25;34.85;;;1.60;99.90;;;;;;4931318;29;20127;-77
2024/01/06 09:23:45;;;;;;;20.42;11.63;;;1.70;99.90;;;;;;4913975;29;20044;-77
2024/01/06 09:26:11;;;;;;;21.90;11.18;;;1.70;99.90;;;;;;4931667;29;20044;-77
2024/01/06 09:28:37;;;;;;;40.40;36.83;;;1.70;99.90;;;;;;4931534;29;20036;-77
2024/01/06 09:31:04;;;;;;;38.55;35.25;;;1.70;99.90;;;;;;4931735;29;20051;-77
2024/01/06 09:33:30;;;;;;;39.80;36.40;;;1.70;99.90;;;;;;4915595;29;20131;-77
2024/01/06 09:35:55;;;;;;;22.38;14.30;;;1.80;99.90;;;;;;4912646;29;20131;-77
2024/01/06 09:38:21;;;;;;;23.40;13.60;;;1.80;99.90;;;;;;4926315;29;20043;-77
2024/01/06 09:40:48;;;;;;;18.90;12.05;;;1.80;99.90;;;;;;4930283;29;20497;-77
2024/01/06 09:43:14;;;;;;;19.75;11.95;;;1.80;99.90;;;;;;4930682;29;20080;-77
2024/01/06 09:45:40;;;;;;;23.38;11.73;;;1.70;99.90;;;;;;4915556;29;20477;-76
2024/01/06 09:48:13;;;;;;;40.10;36.65;;;1.70;99.90;;;;;;4915426;29;20044;-78
2024/01/06 09:50:44;;;;;;;43.35;39.13;;;1.80;99.90;;;;;;4930441;29;20055;-77
2024/01/06 09:53:11;;;;;;;43.22;38.95;;;1.80;99.90;;;;;;4931190;29;20456;-77
2024/01/06 09:55:38;;;;;;;38.05;34.40;;;1.80;99.90;;;;;;4915363;29;20063;-77
2024/01/06 09:58:04;;;;;;;17.60;11.05;;;1.80;99.90;;;;;;4915519;29;20490;-77
2024/01/06 10:00:30;;;;;;;31.48;28.77;;;1.80;99.90;;;;;;4934166;29;20486;-77
2024/01/06 10:02:56;;;;;;;35.72;32.63;;;1.90;99.90;;;;;;4898476;29;20064;-78
2024/01/06 10:05:21;;;;;;;33.13;30.33;;;1.90;99.90;;;;;;4928639;29;20047;-78
2024/01/06 10:07:47;;;;;;;16.65;9.48;;;1.90;99.90;;;;;;4917909;29;20036;-78
2024/01/06 10:10:14;;;;;;;16.35;11.68;;;1.80;99.90;;;;;;4918287;29;20040;-78
2024/01/06 10:12:41;;;;;;;39.38;36.00;;;1.80;99.90;;;;;;4934029;29;20071;-78
2024/01/06 10:15:11;;;;;;;34.47;31.70;;;1.90;99.90;;;;;;4918567;29;20074;-77
2024/01/06 10:17:41;;;;;;;23.92;16.42;;;1.90;99.90;;;;;;4918615;29;20380;-78
2024/01/06 10:20:12;;;;;;;20.98;14.00;;;1.90;99.90;;;;;;4917239;29;20184;-77
2024/01/06 10:22:39;;;;;;;36.88;33.67;;;1.90;99.90;;;;;;4918605;29;20099;-78
2024/01/06 10:25:07;;;;;;;19.63;11.20;;;1.80;99.90;;;;;;4919457;29;20450;-77
2024/01/06 10:27:37;;;;;;;32.95;30.25;;;1.80;99.90;;;;;;4935605;29;20051;-78
2024/01/06 10:30:03;;;;;;;15.80;10.27;;;1.90;99.90;;;;;;4919489;29;20051;-78
2024/01/06 10:32:38;;;;;;;31.40;28.80;;;1.90;99.90;;;;;;4904156;29;20403;-78
2024/01/06 10:35:06;;;;;;;18.52;12.50;;;1.90;99.90;;;;;;4909115;29;20040;-78
2024/01/06 10:37:32;;;;;;;32.25;29.65;;;1.90;99.90;;;;;;4902053;29;20518;-78
2024/01/06 10:40:12;;;;;;;33.10;30.33;;;1.90;99.90;;;;;;4918466;29;20068;-78
2024/01/06 10:42:39;;;;;;;30.98;28.45;;;1.90;99.90;;;;;;4903224;29;20321;-78
2024/01/06 10:45:10;;;;;;;20.42;12.45;;;1.90;99.90;;;;;;4919721;29;20048;-78
2024/01/06 10:47:37;;;;;;;15.05;10.65;;;1.90;99.90;;;;;;4937450;29;20412;-78
2024/01/06 10:50:03;;;;;;;33.50;30.65;;;1.90;99.90;;;;;;4936329;29;20052;-78
2024/01/06 10:52:29;;;;;;;20.02;12.55;;;1.90;99.90;;;;;;4920913;29;20040;-78
2024/01/06 10:54:55;;;;;;;29.77;27.38;;;1.90;99.90;;;;;;4920842;29;20049;-77
2024/01/06 10:57:23;;;;;;;32.20;29.60;;;1.90;99.90;;;;;;4938072;29;20075;-78
2024/01/06 10:59:52;;;;;;;30.92;28.33;;;1.90;99.90;;;;;;4917594;29;20044;-77
2024/01/06 11:02:19;;;;;;;33.63;30.92;;;1.90;99.90;;;;;;4932737;29;20047;-78
2024/01/06 11:04:50;;;;;;;30.98;28.48;;;1.90;99.90;;;;;;4915673;29;20040;-78
2024/01/06 11:07:18;;;;;;;30.70;28.20;;;1.90;99.90;;;;;;4916149;29;20092;-78
2024/01/06 11:10:05;;;;;;;12.93;8.70;;;1.90;99.90;;;;;;4916646;29;20475;-78
2024/01/06 11:12:30;;;;;;;33.63;30.73;;;1.80;99.90;;;;;;4932495;29;20482;-78
2024/01/06 11:14:56;;;;;;;12.30;8.38;;;1.90;99.90;;;;;;4931179;29;20044;-78
2024/01/06 11:17:58;;;;;;;32.85;30.15;;;1.90;99.90;;;;;;4916400;29;20136;-78
2024/01/06 11:20:24;;;;;;;15.35;9.32;;;1.90;99.90;;;;;;4900426;29;20083;-78
2024/01/06 11:22:51;;;;;;;16.73;10.77;;;1.90;99.90;;;;;;4932682;29;20044;-78
2024/01/06 11:25:22;;;;;;;11.60;7.78;;;1.80;99.90;;;;;;4932327;29;20050;-78
2024/01/06 11:27:49;;;;;;;13.75;8.90;;;1.80;99.90;;;;;;4916277;29;20459;-77
2024/01/06 11:30:25;;;;;;;31.58;28.98;;;1.90;99.90;;;;;;4931545;29;20098;-78
2024/01/06 11:32:53;;;;;;;33.35;30.55;;;1.90;99.90;;;;;;4930845;29;20044;-78
2024/01/06 11:35:20;;;;;;;16.60;10.82;;;1.90;99.90;;;;;;4932659;29;20048;-78
2024/01/06 11:37:45;;;;;;;33.08;30.35;;;1.90;99.90;;;;;;4917431;29;20562;-78
2024/01/06 11:40:25;;;;;;;14.48;8.60;;;1.80;99.90;;;;;;4915708;29;20044;-78
2024/01/06 11:43:05;;;;;;;34.92;31.92;;;1.90;99.90;;;;;;4916846;29;20128;-78
2024/01/06 11:45:32;;;;;;;35.67;32.72;;;1.90;99.90;;;;;;4901024;29;20095;-78
2024/01/06 11:48:06;;;;;;;36.63;33.13;;;1.90;99.90;;;;;;4916946;29;20047;-78
2024/01/06 11:50:35;;;;;;;35.70;32.72;;;1.90;99.90;;;;;;4917269;29;20036;-78
2024/01/06 11:53:02;;;;;;;41.20;37.38;;;1.80;99.90;;;;;;4899130;29;20052;-77
2024/01/06 11:55:28;;;;;;;34.78;31.88;;;1.80;99.90;;;;;;4932159;29;20036;-78
2024/01/06 11:58:01;;;;;;;35.42;32.38;;;1.90;99.90;;;;;;4931761;29;20043;-78
2024/01/06 12:00:27;;;;;;;13.98;9.45;;;1.80;99.90;;;;;;4932876;29;20529;-78
2024/01/06 12:02:57;;;;;;;19.02;11.98;;;1.90;99.90;;;;;;4917610;29;20045;-78
2024/01/06 12:05:24;;;;;;;41.60;37.80;;;1.90;99.90;;;;;;4935638;29;20040;-78
2024/01/06 12:08:02;;;;;;;33.75;30.95;;;1.90;99.90;;;;;;4937113;29;20040;-78
2024/01/06 12:10:29;;;;;;;34.25;31.25;;;1.90;99.90;;;;;;4902140;29;20068;-78
2024/01/06 12:13:04;;;;;;;18.40;12.35;;;1.90;99.90;;;;;;4903054;29;20048;-78
2024/01/06 12:15:32;;;;;;;35.92;32.83;;;1.90;99.90;;;;;;4906249;29;20389;-78
2024/01/06 12:17:58;;;;;;;14.35;9.50;;;1.90;99.90;;;;;;4910326;29;20123;-77
2024/01/06 12:20:26;;;;;;;37.30;33.97;;;1.90;99.90;;;;;;4889203;29;20045;-77
2024/01/06 12:22:52;;;;;;;32.83;30.15;;;1.90;99.90;;;;;;4920719;29;20100;-77
2024/01/06 12:25:18;;;;;;;77.75;70.13;;;1.90;99.90;;;;;;4908613;29;20036;-77
2024/01/06 12:27:44;;;;;;;44.20;40.25;;;1.80;99.90;;;;;;4899235;29;20048;-76
2024/01/06 12:30:18;;;;;;;35.88;32.65;;;1.80;99.90;;;;;;4902512;29;20035;-76
2024/01/06 12:32:45;;;;;;;16.23;10.35;;;1.80;99.90;;;;;;4916827;29;20266;-75